sensor_id;sensor_type;location;lat;lon;timestamp;pressure;altitude;pressure_sealevel;temperature;humidity
23433;BME280;41331;45.412;10.992;2023-05-21T00:02:15;100637.72;;;16.95;100.00
23433;BME280;41331;45.412;10.992;2023-05-21T00:04:44;100633.69;;;16.89;100.00
23433;BME280;41331;45.412;10.992;2023-05-21T00:07:12;100630.56;;;16.91;100.00
23433;BME280;41331;45.412;10.992;2023-05-21T00:09:39;100634.88;;;16.88;100.00
23433;BME280;41331;45.412;10.992;2023-05-21T00:12:10;100630.53;;;16.87;100.00
23433;BME280;41331;45.412;10.992;2023-05-21T00:14:37;100630.09;;;16.85;100.00
23433;BME280;41331;45.412;10.992;2023-05-21T00:17:04;100625.38;;;16.86;100.00
23433;BME280;41331;45.412;10.992;2023-05-21T00:19:32;100633.13;;;16.80;100.00
23433;BME280;41331;45.412;10.992;2023-05-21T00:22:00;100624.19;;;16.83;100.00
23433;BME280;41331;45.412;10.992;2023-05-21T00:24:30;100624.53;;;16.81;100.00
23433;BME280;41331;45.412;10.992;2023-05-21T00:26:58;100623.38;;;16.82;100.00
23433;BME280;41331;45.412;10.992;2023-05-21T00:29:25;100615.94;;;16.83;100.00
23433;BME280;41331;45.412;10.992;2023-05-21T00:31:53;100623.00;;;16.84;100.00
23433;BME280;41331;45.412;10.992;2023-05-21T00:34:22;100622.22;;;16.83;100.00
23433;BME280;41331;45.412;10.992;2023-05-21T00:36:49;100614.38;;;16.86;100.00
23433;BME280;41331;45.412;10.992;2023-05-21T00:39:18;100611.16;;;16.80;100.00
23433;BME280;41331;45.412;10.992;2023-05-21T00:41:46;100608.03;;;16.81;100.00
23433;BME280;41331;45.412;10.992;2023-05-21T00:44:14;100601.69;;;16.77;100.00
23433;BME280;41331;45.412;10.992;2023-05-21T00:46:44;100605.88;;;16.71;100.00
23433;BME280;41331;45.412;10.992;2023-05-21T00:49:15;100597.72;;;16.75;100.00
23433;BME280;41331;45.412;10.992;2023-05-21T00:51:43;100602.41;;;16.74;100.00
23433;BME280;41331;45.412;10.992;2023-05-21T00:54:11;100596.13;;;16.74;100.00
23433;BME280;41331;45.412;10.992;2023-05-21T00:56:40;100595.34;;;16.73;100.00
23433;BME280;41331;45.412;10.992;2023-05-21T00:59:08;100599.25;;;16.72;100.00
23433;BME280;41331;45.412;10.992;2023-05-21T01:01:35;100591.00;;;16.72;100.00
23433;BME280;41331;45.412;10.992;2023-05-21T01:04:03;100594.44;;;16.69;100.00
23433;BME280;41331;45.412;10.992;2023-05-21T01:06:31;100596.50;;;16.72;100.00
23433;BME280;41331;45.412;10.992;2023-05-21T01:09:01;100596.91;;;16.74;100.00
23433;BME280;41331;45.412;10.992;2023-05-21T01:11:39;100590.53;;;16.70;100.00
23433;BME280;41331;45.412;10.992;2023-05-21T01:14:09;100583.34;;;16.62;100.00
23433;BME280;41331;45.412;10.992;2023-05-21T01:16:40;100589.25;;;16.64;100.00
23433;BME280;41331;45.412;10.992;2023-05-21T01:19:15;100584.91;;;16.82;100.00
23433;BME280;41331;45.412;10.992;2023-05-21T01:21:49;100587.75;;;16.67;100.00
23433;BME280;41331;45.412;10.992;2023-05-21T01:24:18;100590.75;;;16.62;100.00
23433;BME280;41331;45.412;10.992;2023-05-21T01:26:45;100585.22;;;16.58;100.00
23433;BME280;41331;45.412;10.992;2023-05-21T01:29:13;100589.25;;;16.64;100.00
23433;BME280;41331;45.412;10.992;2023-05-21T01:31:47;100584.91;;;16.63;100.00
23433;BME280;41331;45.412;10.992;2023-05-21T01:34:21;100586.88;;;16.63;100.00
23433;BME280;41331;45.412;10.992;2023-05-21T01:36:59;100590.75;;;16.62;100.00
23433;BME280;41331;45.412;10.992;2023-05-21T01:39:33;100582.88;;;16.60;100.00
23433;BME280;41331;45.412;10.992;2023-05-21T01:42:08;100581.31;;;16.59;100.00
23433;BME280;41331;45.412;10.992;2023-05-21T01:44:36;100578.94;;;16.57;100.00
23433;BME280;41331;45.412;10.992;2023-05-21T01:47:05;100582.81;;;16.56;100.00
23433;BME280;41331;45.412;10.992;2023-05-21T01:49:33;100577.69;;;16.55;100.00
23433;BME280;41331;45.412;10.992;2023-05-21T01:52:00;100582.03;;;16.56;100.00
23433;BME280;41331;45.412;10.992;2023-05-21T01:54:28;100578.44;;;16.52;100.00
23433;BME280;41331;45.412;10.992;2023-05-21T01:56:56;100574.88;;;16.51;100.00
23433;BME280;41331;45.412;10.992;2023-05-21T01:59:27;100577.13;;;16.46;100.00
23433;BME280;41331;45.412;10.992;2023-05-21T02:01:56;100576.66;;;16.40;100.00
23433;BME280;41331;45.412;10.992;2023-05-21T02:04:23;100570.28;;;16.36;100.00
23433;BME280;41331;45.412;10.992;2023-05-21T02:06:51;100566.44;;;16.41;100.00
23433;BME280;41331;45.412;10.992;2023-05-21T02:09:21;100565.66;;;16.40;100.00
23433;BME280;41331;45.412;10.992;2023-05-21T02:11:48;100558.50;;;16.36;100.00
23433;BME280;41331;45.412;10.992;2023-05-21T02:14:16;100562.88;;;16.37;100.00
23433;BME280;41331;45.412;10.992;2023-05-21T02:16:43;100561.63;;;16.34;100.00
23433;BME280;41331;45.412;10.992;2023-05-21T02:19:13;100562.00;;;16.33;100.00
23433;BME280;41331;45.412;10.992;2023-05-21T02:21:41;100558.59;;;16.39;100.00
23433;BME280;41331;45.412;10.992;2023-05-21T02:24:09;100565.63;;;16.37;100.00
23433;BME280;41331;45.412;10.992;2023-05-21T02:26:36;100561.63;;;16.34;100.00
23433;BME280;41331;45.412;10.992;2023-05-21T02:29:04;100556.84;;;16.31;100.00
23433;BME280;41331;45.412;10.992;2023-05-21T02:31:31;100555.75;;;16.36;100.00
23433;BME280;41331;45.412;10.992;2023-05-21T02:33:59;100553.75;;;16.33;100.00
23433;BME280;41331;45.412;10.992;2023-05-21T02:36:27;100556.81;;;16.27;100.00
23433;BME280;41331;45.412;10.992;2023-05-21T02:38:55;100550.53;;;16.27;100.00
23433;BME280;41331;45.412;10.992;2023-05-21T02:41:23;100552.19;;;16.31;100.00
23433;BME280;41331;45.412;10.992;2023-05-21T02:43:51;100543.13;;;16.31;100.00
23433;BME280;41331;45.412;10.992;2023-05-21T02:46:20;100537.28;;;16.33;100.00
23433;BME280;41331;45.412;10.992;2023-05-21T02:48:49;100538.50;;;16.35;100.00
23433;BME280;41331;45.412;10.992;2023-05-21T02:51:16;100539.16;;;16.28;100.00
23433;BME280;41331;45.412;10.992;2023-05-21T02:53:47;100523.78;;;16.24;100.00
23433;BME280;41331;45.412;10.992;2023-05-21T02:56:14;100528.84;;;16.22;100.00
23433;BME280;41331;45.412;10.992;2023-05-21T02:58:42;100526.91;;;16.22;100.00
23433;BME280;41331;45.412;10.992;2023-05-21T03:01:09;100522.38;;;16.34;100.00
23433;BME280;41331;45.412;10.992;2023-05-21T03:03:37;100527.47;;;16.31;100.00
23433;BME280;41331;45.412;10.992;2023-05-21T03:06:06;100524.34;;;16.33;100.00
23433;BME280;41331;45.412;10.992;2023-05-21T03:08:36;100518.41;;;16.31;100.00
23433;BME280;41331;45.412;10.992;2023-05-21T03:11:03;100529.03;;;16.33;100.00
23433;BME280;41331;45.412;10.992;2023-05-21T03:13:31;100526.72;;;16.35;100.00
23433;BME280;41331;45.412;10.992;2023-05-21T03:15:59;100531.03;;;16.36;100.00
23433;BME280;41331;45.412;10.992;2023-05-21T03:18:26;100525.84;;;16.30;100.00
23433;BME280;41331;45.412;10.992;2023-05-21T03:20:55;100531.00;;;16.32;100.00
23433;BME280;41331;45.412;10.992;2023-05-21T03:23:25;100531.03;;;16.36;100.00
23433;BME280;41331;45.412;10.992;2023-05-21T03:25:53;100526.63;;;16.31;100.00
23433;BME280;41331;45.412;10.992;2023-05-21T03:28:21;100520.81;;;16.33;100.00
23433;BME280;41331;45.412;10.992;2023-05-21T03:30:49;100517.97;;;16.29;100.00
23433;BME280;41331;45.412;10.992;2023-05-21T03:33:36;100515.22;;;16.29;100.00
23433;BME280;41331;45.412;10.992;2023-05-21T03:36:19;100510.97;;;16.31;100.00
23433;BME280;41331;45.412;10.992;2023-05-21T03:38:47;100507.97;;;16.40;100.00
23433;BME280;41331;45.412;10.992;2023-05-21T03:41:14;100509.22;;;16.43;100.00
23433;BME280;41331;45.412;10.992;2023-05-21T03:43:46;100513.13;;;16.42;100.00
23433;BME280;41331;45.412;10.992;2023-05-21T03:46:13;100504.13;;;16.45;100.00
23433;BME280;41331;45.412;10.992;2023-05-21T03:49:04;100508.75;;;16.41;100.00
23433;BME280;41331;45.412;10.992;2023-05-21T03:51:34;100511.16;;;16.42;100.00
23433;BME280;41331;45.412;10.992;2023-05-21T03:54:02;100515.41;;;16.40;100.00
23433;BME280;41331;45.412;10.992;2023-05-21T03:56:30;100512.19;;;16.34;100.00
23433;BME280;41331;45.412;10.992;2023-05-21T03:58:58;100515.50;;;16.43;100.00
23433;BME280;41331;45.412;10.992;2023-05-21T04:01:28;100518.16;;;16.40;100.00
23433;BME280;41331;45.412;10.992;2023-05-21T04:03:56;100515.06;;;16.41;100.00
23433;BME280;41331;45.412;10.992;2023-05-21T04:06:26;100512.75;;;16.43;100.00
23433;BME280;41331;45.412;10.992;2023-05-21T04:08:54;100511.50;;;16.41;100.00
23433;BME280;41331;45.412;10.992;2023-05-21T04:11:21;100513.94;;;16.46;100.00
23433;BME280;41331;45.412;10.992;2023-05-21T04:13:49;100520.69;;;16.48;100.00
23433;BME280;41331;45.412;10.992;2023-05-21T04:16:16;100521.47;;;16.49;100.00
23433;BME280;41331;45.412;10.992;2023-05-21T04:18:46;100525.88;;;16.53;100.00
23433;BME280;41331;45.412;10.992;2023-05-21T04:21:15;100529.78;;;16.52;100.00
23433;BME280;41331;45.412;10.992;2023-05-21T04:23:44;100526.59;;;16.50;100.00
23433;BME280;41331;45.412;10.992;2023-05-21T04:26:24;100520.25;;;16.46;100.00
23433;BME280;41331;45.412;10.992;2023-05-21T04:28:52;100524.91;;;16.42;100.00
23433;BME280;41331;45.412;10.992;2023-05-21T04:31:25;100530.03;;;16.44;100.00
23433;BME280;41331;45.412;10.992;2023-05-21T04:33:53;100519.41;;;16.42;100.00
23433;BME280;41331;45.412;10.992;2023-05-21T04:36:22;100524.09;;;16.42;100.00
23433;BME280;41331;45.412;10.992;2023-05-21T04:38:50;100525.25;;;16.41;100.00
23433;BME280;41331;45.412;10.992;2023-05-21T04:41:18;100519.13;;;16.51;100.00
23433;BME280;41331;45.412;10.992;2023-05-21T04:43:45;100529.41;;;16.54;100.00
23433;BME280;41331;45.412;10.992;2023-05-21T04:46:14;100530.56;;;16.53;100.00
23433;BME280;41331;45.412;10.992;2023-05-21T04:48:42;100530.31;;;16.62;100.00
23433;BME280;41331;45.412;10.992;2023-05-21T04:51:12;100526.72;;;16.57;100.00
23433;BME280;41331;45.412;10.992;2023-05-21T04:53:41;100528.31;;;16.58;100.00
23433;BME280;41331;45.412;10.992;2023-05-21T04:56:08;100520.97;;;16.66;100.00
23433;BME280;41331;45.412;10.992;2023-05-21T04:58:36;100527.31;;;16.70;100.00
23433;BME280;41331;45.412;10.992;2023-05-21T05:01:06;100528.06;;;16.67;100.00
23433;BME280;41331;45.412;10.992;2023-05-21T05:03:35;100527.91;;;16.79;100.00
23433;BME280;41331;45.412;10.992;2023-05-21T05:06:03;100534.56;;;16.78;100.00
23433;BME280;41331;45.412;10.992;2023-05-21T05:08:32;100530.25;;;16.77;100.00
23433;BME280;41331;45.412;10.992;2023-05-21T05:11:00;100533.03;;;16.81;100.00
23433;BME280;41331;45.412;10.992;2023-05-21T05:13:27;100536.22;;;16.83;100.00
23433;BME280;41331;45.412;10.992;2023-05-21T05:15:55;100533.09;;;16.85;100.00
23433;BME280;41331;45.412;10.992;2023-05-21T05:18:23;100534.00;;;16.92;100.00
23433;BME280;41331;45.412;10.992;2023-05-21T05:20:54;100530.03;;;16.90;100.00
23433;BME280;41331;45.412;10.992;2023-05-21T05:23:21;100543.16;;;17.00;100.00
23433;BME280;41331;45.412;10.992;2023-05-21T05:25:50;100540.00;;;16.98;100.00
23433;BME280;41331;45.412;10.992;2023-05-21T05:28:18;100538.44;;;17.00;100.00
23433;BME280;41331;45.412;10.992;2023-05-21T05:30:45;100536.47;;;17.01;100.00
23433;BME280;41331;45.412;10.992;2023-05-21T05:33:21;100542.72;;;16.98;100.00
23433;BME280;41331;45.412;10.992;2023-05-21T05:35:48;100536.53;;;17.04;100.00
23433;BME280;41331;45.412;10.992;2023-05-21T05:38:16;100536.59;;;17.08;100.00
23433;BME280;41331;45.412;10.992;2023-05-21T05:40:43;100542.97;;;17.12;100.00
23433;BME280;41331;45.412;10.992;2023-05-21T05:43:11;100537.47;;;17.12;100.00
23433;BME280;41331;45.412;10.992;2023-05-21T05:45:38;100542.19;;;17.15;100.00
23433;BME280;41331;45.412;10.992;2023-05-21T05:48:11;100540.22;;;17.12;100.00
23433;BME280;41331;45.412;10.992;2023-05-21T05:50:39;100538.25;;;17.13;100.00
23433;BME280;41331;45.412;10.992;2023-05-21T05:53:07;100540.25;;;17.16;100.00
23433;BME280;41331;45.412;10.992;2023-05-21T05:55:36;100545.41;;;17.17;100.00
23433;BME280;41331;45.412;10.992;2023-05-21T05:58:04;100546.22;;;17.21;100.00
23433;BME280;41331;45.412;10.992;2023-05-21T06:00:40;100545.44;;;17.21;100.00
23433;BME280;41331;45.412;10.992;2023-05-21T06:03:08;100547.38;;;17.20;100.00
23433;BME280;41331;45.412;10.992;2023-05-21T06:05:36;100546.75;;;17.30;100.00
23433;BME280;41331;45.412;10.992;2023-05-21T06:08:04;100542.81;;;17.31;100.00
23433;BME280;41331;45.412;10.992;2023-05-21T06:10:31;100542.47;;;17.33;100.00
23433;BME280;41331;45.412;10.992;2023-05-21T06:12:59;100542.88;;;17.35;100.00
23433;BME280;41331;45.412;10.992;2023-05-21T06:15:26;100546.88;;;17.38;100.00
23433;BME280;41331;45.412;10.992;2023-05-21T06:17:54;100546.88;;;17.38;100.00
23433;BME280;41331;45.412;10.992;2023-05-21T06:20:22;100540.25;;;17.42;100.00
23433;BME280;41331;45.412;10.992;2023-05-21T06:22:50;100546.09;;;17.41;100.00
23433;BME280;41331;45.412;10.992;2023-05-21T06:25:17;100542.94;;;17.39;100.00
23433;BME280;41331;45.412;10.992;2023-05-21T06:27:45;100541.06;;;17.46;100.00
23433;BME280;41331;45.412;10.992;2023-05-21T06:30:20;100544.72;;;17.54;100.00
23433;BME280;41331;45.412;10.992;2023-05-21T06:32:50;100552.72;;;17.63;100.00
23433;BME280;41331;45.412;10.992;2023-05-21T06:35:18;100549.63;;;17.68;100.00
23433;BME280;41331;45.412;10.992;2023-05-21T06:37:46;100545.16;;;17.86;100.00
23433;BME280;41331;45.412;10.992;2023-05-21T06:40:15;100538.19;;;17.96;100.00
23433;BME280;41331;45.412;10.992;2023-05-21T06:42:42;100547.03;;;18.12;100.00
23433;BME280;41331;45.412;10.992;2023-05-21T06:45:39;100541.34;;;18.31;100.00
23433;BME280;41331;45.412;10.992;2023-05-21T06:48:24;100554.50;;;18.49;100.00
23433;BME280;41331;45.412;10.992;2023-05-21T06:50:51;100554.66;;;18.67;100.00
23433;BME280;41331;45.412;10.992;2023-05-21T06:53:19;100550.91;;;18.85;100.00
23433;BME280;41331;45.412;10.992;2023-05-21T06:55:47;100551.88;;;19.07;100.00
23433;BME280;41331;45.412;10.992;2023-05-21T06:58:26;100559.53;;;19.28;100.00
23433;BME280;41331;45.412;10.992;2023-05-21T07:00:58;100559.34;;;19.62;100.00
23433;BME280;41331;45.412;10.992;2023-05-21T07:03:26;100544.53;;;19.99;100.00
23433;BME280;41331;45.412;10.992;2023-05-21T07:05:55;100546.94;;;20.22;100.00
23433;BME280;41331;45.412;10.992;2023-05-21T07:08:23;100548.94;;;20.42;98.73
23433;BME280;41331;45.412;10.992;2023-05-21T07:10:50;100550.19;;;20.88;97.66
23433;BME280;41331;45.412;10.992;2023-05-21T07:13:18;100551.38;;;21.05;94.31
23433;BME280;41331;45.412;10.992;2023-05-21T07:15:46;100549.41;;;21.30;91.62
23433;BME280;41331;45.412;10.992;2023-05-21T07:18:14;100539.06;;;21.56;88.14
23433;BME280;41331;45.412;10.992;2023-05-21T07:20:43;100540.63;;;21.64;84.51
23433;BME280;41331;45.412;10.992;2023-05-21T07:23:14;100538.38;;;22.21;82.35
23433;BME280;41331;45.412;10.992;2023-05-21T07:25:41;100533.34;;;22.65;79.00
23433;BME280;41331;45.412;10.992;2023-05-21T07:28:09;100527.38;;;22.70;76.47
23433;BME280;41331;45.412;10.992;2023-05-21T07:30:37;100531.44;;;22.55;74.89
23433;BME280;41331;45.412;10.992;2023-05-21T07:33:09;100531.53;;;22.40;77.20
23433;BME280;41331;45.412;10.992;2023-05-21T07:35:38;100541.88;;;22.88;75.67
23433;BME280;41331;45.412;10.992;2023-05-21T07:38:06;100533.97;;;23.28;74.49
23433;BME280;41331;45.412;10.992;2023-05-21T07:40:34;100537.94;;;23.27;69.26
23433;BME280;41331;45.412;10.992;2023-05-21T07:43:02;100539.00;;;22.99;69.16
23433;BME280;41331;45.412;10.992;2023-05-21T07:45:31;100539.28;;;23.15;69.70
23433;BME280;41331;45.412;10.992;2023-05-21T07:48:01;100543.16;;;23.21;69.11
23433;BME280;41331;45.412;10.992;2023-05-21T07:50:31;100540.84;;;23.16;67.55
23433;BME280;41331;45.412;10.992;2023-05-21T07:52:59;100542.03;;;23.15;71.69
23433;BME280;41331;45.412;10.992;2023-05-21T07:55:27;100541.25;;;23.15;73.70
23433;BME280;41331;45.412;10.992;2023-05-21T07:57:54;100537.31;;;23.12;76.61
23433;BME280;41331;45.412;10.992;2023-05-21T08:00:27;100542.59;;;23.37;75.43
23433;BME280;41331;45.412;10.992;2023-05-21T08:02:56;100551.53;;;23.56;72.94
23433;BME280;41331;45.412;10.992;2023-05-21T08:05:25;100542.09;;;23.84;73.31
23433;BME280;41331;45.412;10.992;2023-05-21T08:07:52;100544.50;;;23.82;70.38
23433;BME280;41331;45.412;10.992;2023-05-21T08:10:22;100549.78;;;23.72;69.40
23433;BME280;41331;45.412;10.992;2023-05-21T08:12:50;100546.97;;;23.76;69.26
23433;BME280;41331;45.412;10.992;2023-05-21T08:15:19;100542.47;;;23.86;69.80
23433;BME280;41331;45.412;10.992;2023-05-21T08:17:47;100549.69;;;24.41;69.79
23433;BME280;41331;45.412;10.992;2023-05-21T08:20:15;100552.59;;;24.30;68.85
23433;BME280;41331;45.412;10.992;2023-05-21T08:22:44;100555.66;;;24.09;70.57
23433;BME280;41331;45.412;10.992;2023-05-21T08:25:12;100552.03;;;24.15;71.85
23433;BME280;41331;45.412;10.992;2023-05-21T08:27:40;100548.06;;;23.82;67.15
23433;BME280;41331;45.412;10.992;2023-05-21T08:30:09;100537.38;;;23.81;67.23
23433;BME280;41331;45.412;10.992;2023-05-21T08:32:37;100544.78;;;23.57;70.53
23433;BME280;41331;45.412;10.992;2023-05-21T08:35:05;100543.34;;;23.79;67.03
23433;BME280;41331;45.412;10.992;2023-05-21T08:38:06;100546.31;;;23.95;61.79
23433;BME280;41331;45.412;10.992;2023-05-21T08:40:53;100547.13;;;24.23;56.15
23433;BME280;41331;45.412;10.992;2023-05-21T08:43:21;100553.56;;;24.47;50.18
23433;BME280;41331;45.412;10.992;2023-05-21T08:45:55;100550.63;;;24.58;49.58
23433;BME280;41331;45.412;10.992;2023-05-21T08:48:29;100552.44;;;24.68;50.05
23433;BME280;41331;45.412;10.992;2023-05-21T08:50:58;100551.06;;;24.56;48.63
23433;BME280;41331;45.412;10.992;2023-05-21T08:53:32;100550.41;;;24.72;48.06
23433;BME280;41331;45.412;10.992;2023-05-21T08:56:01;100554.22;;;24.54;46.31
23433;BME280;41331;45.412;10.992;2023-05-21T08:58:40;100545.75;;;24.65;47.18
23433;BME280;41331;45.412;10.992;2023-05-21T09:01:12;100545.34;;;24.90;46.20
23433;BME280;41331;45.412;10.992;2023-05-21T09:03:44;100549.44;;;25.05;46.07
23433;BME280;41331;45.412;10.992;2023-05-21T09:06:13;100533.06;;;25.11;47.17
23433;BME280;41331;45.412;10.992;2023-05-21T09:08:43;100528.00;;;25.26;44.99
23433;BME280;41331;45.412;10.992;2023-05-21T09:11:25;100544.94;;;25.15;44.13
23433;BME280;41331;45.412;10.992;2023-05-21T09:13:57;100538.28;;;25.29;45.14
23433;BME280;41331;45.412;10.992;2023-05-21T09:16:35;100538.97;;;25.56;44.44
23433;BME280;41331;45.412;10.992;2023-05-21T09:19:02;100537.59;;;25.65;42.12
23433;BME280;41331;45.412;10.992;2023-05-21T09:21:34;100546.06;;;25.81;43.67
23433;BME280;41331;45.412;10.992;2023-05-21T09:24:10;100546.44;;;25.99;42.06
23433;BME280;41331;45.412;10.992;2023-05-21T09:26:41;100538.25;;;25.92;42.17
23433;BME280;41331;45.412;10.992;2023-05-21T09:29:11;100543.22;;;26.21;42.09
23433;BME280;41331;45.412;10.992;2023-05-21T09:31:45;100544.88;;;25.98;41.94
23433;BME280;41331;45.412;10.992;2023-05-21T09:34:13;100544.41;;;25.83;41.89
23433;BME280;41331;45.412;10.992;2023-05-21T09:36:47;100539.25;;;25.62;43.43
23433;BME280;41331;45.412;10.992;2023-05-21T09:39:27;100539.97;;;25.46;44.82
23433;BME280;41331;45.412;10.992;2023-05-21T09:42:01;100550.06;;;25.17;46.44
23433;BME280;41331;45.412;10.992;2023-05-21T09:44:29;100536.34;;;25.02;46.31
23433;BME280;41331;45.412;10.992;2023-05-21T09:47:00;100547.03;;;25.08;46.52
23433;BME280;41331;45.412;10.992;2023-05-21T09:49:28;100546.19;;;25.11;46.72
23433;BME280;41331;45.412;10.992;2023-05-21T09:51:58;100544.94;;;25.15;47.18
23433;BME280;41331;45.412;10.992;2023-05-21T09:54:33;100539.38;;;25.55;45.96
23433;BME280;41331;45.412;10.992;2023-05-21T09:57:01;100547.56;;;25.86;44.44
23433;BME280;41331;45.412;10.992;2023-05-21T09:59:37;100543.91;;;25.89;44.67
23433;BME280;41331;45.412;10.992;2023-05-21T10:02:19;100540.75;;;26.06;44.67
23433;BME280;41331;45.412;10.992;2023-05-21T10:04:48;100538.78;;;26.40;43.13
23433;BME280;41331;45.412;10.992;2023-05-21T10:07:21;100544.06;;;26.54;43.65
23433;BME280;41331;45.412;10.992;2023-05-21T10:09:53;100542.16;;;26.51;42.93
23433;BME280;41331;45.412;10.992;2023-05-21T10:12:24;100545.72;;;26.51;43.28
23433;BME280;41331;45.412;10.992;2023-05-21T10:14:59;100555.03;;;26.45;42.46
23433;BME280;41331;45.412;10.992;2023-05-21T10:17:31;100543.31;;;26.33;42.87
23433;BME280;41331;45.412;10.992;2023-05-21T10:19:59;100550.31;;;26.42;43.11
23433;BME280;41331;45.412;10.992;2023-05-21T10:22:28;100546.72;;;26.41;43.66
23433;BME280;41331;45.412;10.992;2023-05-21T10:24:56;100549.66;;;26.34;43.94
23433;BME280;41331;45.412;10.992;2023-05-21T10:27:28;100531.13;;;26.60;43.31
23433;BME280;41331;45.412;10.992;2023-05-21T10:29:59;100533.06;;;26.79;43.59
23433;BME280;41331;45.412;10.992;2023-05-21T10:32:26;100534.38;;;26.58;42.95
23433;BME280;41331;45.412;10.992;2023-05-21T10:34:54;100533.47;;;26.45;43.14
23433;BME280;41331;45.412;10.992;2023-05-21T10:37:25;100534.19;;;25.97;43.89
23433;BME280;41331;45.412;10.992;2023-05-21T10:39:54;100538.88;;;25.60;45.29
23433;BME280;41331;45.412;10.992;2023-05-21T10:48:04;100533.75;;;26.15;44.80
23433;BME280;41331;45.412;10.992;2023-05-21T10:50:49;100524.13;;;26.35;39.63
23433;BME280;41331;45.412;10.992;2023-05-21T10:53:32;100523.81;;;26.50;39.10
23433;BME280;41331;45.412;10.992;2023-05-21T10:56:24;100513.19;;;26.61;38.54
23433;BME280;41331;45.412;10.992;2023-05-21T11:01:50;100516.91;;;26.71;38.58
23433;BME280;41331;45.412;10.992;2023-05-21T11:04:26;100519.50;;;26.94;38.80
23433;BME280;41331;45.412;10.992;2023-05-21T11:06:57;100509.06;;;26.82;38.03
23433;BME280;41331;45.412;10.992;2023-05-21T11:09:25;100513.59;;;26.92;38.09
23433;BME280;41331;45.412;10.992;2023-05-21T11:11:57;100507.03;;;27.15;39.46
23433;BME280;41331;45.412;10.992;2023-05-21T11:16:58;100514.38;;;27.09;37.16
23433;BME280;41331;45.412;10.992;2023-05-21T11:19:37;100517.22;;;27.05;37.25
23433;BME280;41331;45.412;10.992;2023-05-21T11:24:49;100517.94;;;27.09;37.10
23433;BME280;41331;45.412;10.992;2023-05-21T11:32:36;100522.31;;;26.94;37.12
23433;BME280;41331;45.412;10.992;2023-05-21T11:35:05;100509.47;;;27.13;36.76
23433;BME280;41331;45.412;10.992;2023-05-21T11:37:34;100514.16;;;27.45;37.19
23433;BME280;41331;45.412;10.992;2023-05-21T11:40:22;100505.13;;;27.41;37.72
23433;BME280;41331;45.412;10.992;2023-05-21T11:42:57;100506.84;;;27.51;37.79
23433;BME280;41331;45.412;10.992;2023-05-21T11:45:32;100508.41;;;27.65;36.84
23433;BME280;41331;45.412;10.992;2023-05-21T11:48:00;100499.56;;;27.25;37.55
23433;BME280;41331;45.412;10.992;2023-05-21T11:50:27;100501.53;;;27.41;38.08
23433;BME280;41331;45.412;10.992;2023-05-21T11:52:58;100509.28;;;27.20;36.86
23433;BME280;41331;45.412;10.992;2023-05-21T11:55:26;100501.34;;;27.19;38.31
23433;BME280;41331;45.412;10.992;2023-05-21T11:57:53;100491.50;;;27.14;38.21
23433;BME280;41331;45.412;10.992;2023-05-21T12:00:25;100497.94;;;27.40;38.16
23433;BME280;41331;45.412;10.992;2023-05-21T12:02:53;100494.66;;;27.58;38.83
23433;BME280;41331;45.412;10.992;2023-05-21T12:05:23;100499.88;;;27.72;38.48
23433;BME280;41331;45.412;10.992;2023-05-21T12:07:51;100504.06;;;27.35;38.41
23433;BME280;41331;45.412;10.992;2023-05-21T12:10:21;100493.34;;;27.75;38.33
23433;BME280;41331;45.412;10.992;2023-05-21T12:12:51;100490.16;;;27.60;37.94
23433;BME280;41331;45.412;10.992;2023-05-21T12:15:24;100485.75;;;27.76;38.71
23433;BME280;41331;45.412;10.992;2023-05-21T12:17:53;100481.91;;;27.70;38.34
23433;BME280;41331;45.412;10.992;2023-05-21T12:20:21;100483.88;;;27.85;38.96
23433;BME280;41331;45.412;10.992;2023-05-21T12:22:49;100486.28;;;27.58;38.85
23433;BME280;41331;45.412;10.992;2023-05-21T12:25:18;100490.41;;;27.24;37.37
23433;BME280;41331;45.412;10.992;2023-05-21T12:27:47;100488.94;;;27.49;37.12
23433;BME280;41331;45.412;10.992;2023-05-21T12:30:17;100495.88;;;27.57;37.12
23433;BME280;41331;45.412;10.992;2023-05-21T12:32:44;100493.09;;;27.57;36.99
23433;BME280;41331;45.412;10.992;2023-05-21T12:35:22;100486.31;;;27.71;37.28
23433;BME280;41331;45.412;10.992;2023-05-21T12:37:50;100485.78;;;27.88;38.97
23433;BME280;41331;45.412;10.992;2023-05-21T12:40:18;100483.44;;;27.87;37.14
23433;BME280;41331;45.412;10.992;2023-05-21T12:42:46;100483.78;;;27.76;36.63
23433;BME280;41331;45.412;10.992;2023-05-21T12:45:13;100481.09;;;27.44;37.79
23433;BME280;41331;45.412;10.992;2023-05-21T12:47:47;100478.75;;;27.42;37.43
23433;BME280;41331;45.412;10.992;2023-05-21T12:50:18;100480.22;;;27.59;39.95
23433;BME280;41331;45.412;10.992;2023-05-21T12:52:46;100482.25;;;27.30;38.17
23433;BME280;41331;45.412;10.992;2023-05-21T12:55:15;100470.13;;;27.49;38.50
23433;BME280;41331;45.412;10.992;2023-05-21T12:57:43;100481.69;;;27.64;38.78
23433;BME280;41331;45.412;10.992;2023-05-21T13:00:11;100480.56;;;27.61;37.47
23433;BME280;41331;45.412;10.992;2023-05-21T13:02:39;100486.69;;;27.44;37.18
23433;BME280;41331;45.412;10.992;2023-05-21T13:05:14;100483.25;;;27.52;38.13
23433;BME280;41331;45.412;10.992;2023-05-21T13:07:44;100473.63;;;27.66;37.75
23433;BME280;41331;45.412;10.992;2023-05-21T13:10:14;100480.50;;;27.78;37.14